Bobcaygeon, Canada
Current Conditions -  °F | °C
As of 2:00 AM on Wednesday 22 Oct 2014 (Local Time) from CYPQ Reporting Station
Overcast Overcast  
Wind Chill: 35°   Ceiling: 2400
Heat Index: 41°   Visibility: 9mi
Dew Point: 36°   Wind: 9mph
Humidity: 81%   Direction: 20°NNE
Pressure: 30.16"   Gusts: NA
Location:  44.53°N, 78.55°W
Report Text: CYPQ 220600Z AUTO 02008KT 9SM OVC024 05/02 A3016 RMK SLP219
Loading
Personal Weather Stations






























Interactive Weather Map
Tropical Storm Tracking
New forecast layout! Learn more

10-Day Weather Forecast

Advertisements
Track Severe Weather on mobile